Terminal Aerodrome Forecast
Issued by NWS

Home | Current Version | Previous Version | Text Only | Print | Product List | Glossary Off
Versions: 1 2 3 4 5 6 7 8 9 10 11 12 13 14 15 16 17 18

000
FTUS43 KIWX 151120
TAFSBN
TAF
KSBN 151120Z 1512/1612 00000KT 3SM BR SCT150 BKN250
     FM151600 18003KT P6SM SCT150 BKN250
     FM160600 15004KT 5SM BR BKN100
     FM161100 13004KT 6SM BR BKN050=

USA.gov is the U.S. government's official web portal to all federal, state and local government web resources and services.